Time;durP1;ratioP1;P1;durP2;ratioP2;P2;SDS_P1;SDS_P2;PMS_P1;PMS_P2;Temp;Humidity;BMP_temperature;BMP_pressure;BME280_temperature;BME280_humidity;BME280_pressure;Samples;Min_cycle;Max_cycle;Signal;HPM_P1;HPM_P2
2023/02/05 00:02:11;;;;;;;21.75;8.93;;;6.20;83.00;;;;;;9182507;19;19927;-63
2023/02/05 00:05:15;;;;;;;17.02;8.90;;;6.20;83.00;;;;;;9181296;19;20668;-62
2023/02/05 00:08:21;;;;;;;21.08;9.35;;;6.20;83.00;;;;;;9182132;19;20011;-62
2023/02/05 00:11:24;;;;;;;;;;;6.20;83.10;;;;;;9175629;19;20015;-63
2023/02/05 00:14:32;;;;;;;24.80;10.68;;;6.20;83.20;;;;;;9181562;19;19918;-61
2023/02/05 00:17:37;;;;;;;19.50;9.38;;;6.20;83.10;;;;;;9181565;19;20027;-63
2023/02/05 00:20:43;;;;;;;19.58;10.25;;;6.20;83.20;;;;;;9181483;19;20029;-63
2023/02/05 00:23:47;;;;;;;;;;;6.20;83.20;;;;;;9182381;19;20015;-61
2023/02/05 00:26:52;;;;;;;;;;;6.20;83.30;;;;;;9179435;19;20012;-62
2023/02/05 00:29:58;;;;;;;;;;;6.20;83.20;;;;;;9181338;19;20455;-61
2023/02/05 00:33:04;;;;;;;;;;;6.20;83.20;;;;;;9180482;19;19926;-61
2023/02/05 00:36:08;;;;;;;;;;;6.20;83.10;;;;;;9182181;19;19926;-62
2023/02/05 00:39:13;;;;;;;;;;;6.30;83.10;;;;;;9181766;19;19923;-62
2023/02/05 00:42:17;;;;;;;;;;;6.20;83.70;;;;;;9181463;19;19937;-61
2023/02/05 00:45:24;;;;;;;;;;;6.30;83.10;;;;;;9179267;19;19919;-62
2023/02/05 00:48:28;;;;;;;;;;;6.30;83.10;;;;;;9181510;19;19927;-62
2023/02/05 00:51:34;;;;;;;;;;;6.30;83.00;;;;;;9181789;19;20259;-62
2023/02/05 00:54:37;;;;;;;;;;;6.30;83.00;;;;;;9182145;19;19922;-61
2023/02/05 00:57:43;;;;;;;;;;;6.30;83.00;;;;;;9181070;19;19919;-61
2023/02/05 01:00:50;;;;;;;;;;;6.30;83.00;;;;;;9181413;19;19907;-62
2023/02/05 01:03:56;;;;;;;;;;;6.40;83.00;;;;;;9181223;19;20332;-61
2023/02/05 01:06:59;;;;;;;;;;;6.40;83.00;;;;;;9178027;19;19914;-62
2023/02/05 01:10:06;;;;;;;;;;;6.40;83.10;;;;;;9175154;19;19926;-61
2023/02/05 01:13:09;;;;;;;;;;;6.40;83.10;;;;;;9181041;19;19978;-63
2023/02/05 01:16:17;;;;;;;;;;;6.40;83.10;;;;;;9180283;19;19990;-62
2023/02/05 01:19:21;;;;;;;;;;;6.40;83.10;;;;;;9180197;19;19925;-62
2023/02/05 01:22:27;;;;;;;;;;;6.40;83.00;;;;;;9179351;19;19929;-63
2023/02/05 01:25:31;;;;;;;;;;;6.40;83.00;;;;;;9177333;19;19937;-64
2023/02/05 01:28:37;;;;;;;;;;;6.50;83.10;;;;;;9179626;19;19911;-63
2023/02/05 01:31:42;;;;;;;;;;;6.50;83.00;;;;;;9179743;19;20466;-64
2023/02/05 01:34:48;;;;;;;;;;;6.50;83.00;;;;;;9180668;19;19922;-64
2023/02/05 01:37:52;;;;;;;;;;;6.50;83.10;;;;;;9177901;19;19949;-61
2023/02/05 01:40:58;;;;;;;;;;;6.50;83.10;;;;;;9177982;19;19922;-63
2023/02/05 01:44:09;;;;;;;;;;;6.50;83.10;;;;;;9179365;19;19955;-59
2023/02/05 01:47:17;;;;;;;;;;;6.50;83.10;;;;;;9176252;19;19923;-60
2023/02/05 01:50:23;;;;;;;;;;;6.50;83.10;;;;;;9179137;19;19937;-62
2023/02/05 01:53:30;;;;;;;;;;;6.50;83.00;;;;;;9179174;19;20666;-61
2023/02/05 01:56:37;;;;;;;;;;;6.60;83.10;;;;;;9179688;19;20329;-61
2023/02/05 01:59:44;;;;;;;;;;;6.60;83.10;;;;;;9176928;19;20161;-61
2023/02/05 02:02:49;;;;;;;;;;;6.60;83.10;;;;;;9179068;19;20344;-62
2023/02/05 02:05:56;;;;;;;;;;;6.60;83.10;;;;;;9177636;19;19926;-63
2023/02/05 02:09:01;;;;;;;;;;;6.60;83.10;;;;;;9176761;19;19922;-64
2023/02/05 02:12:07;;;;;;;;;;;6.60;83.10;;;;;;9168961;19;19919;-64
2023/02/05 02:15:12;;;;;;;;;;;6.60;83.10;;;;;;9178903;19;19915;-61
2023/02/05 02:18:29;;;;;;;;;;;6.70;83.20;;;;;;9178226;19;19930;-60
2023/02/05 02:21:51;;;;;;;;;;;6.70;83.10;;;;;;9178121;19;19919;-61
2023/02/05 02:25:02;;;;;;;;;;;6.70;83.10;;;;;;9178381;19;19918;-61
2023/02/05 02:28:09;;;;;;;;;;;6.70;83.10;;;;;;9177043;19;20367;-63
2023/02/05 02:31:17;;;;;;;;;;;6.70;83.10;;;;;;9177885;19;19928;-62
2023/02/05 02:34:26;;;;;;;;;;;6.80;83.20;;;;;;9178627;19;19914;-63
2023/02/05 02:37:35;;;;;;;;;;;6.70;83.20;;;;;;9182399;19;19927;-62
2023/02/05 02:40:44;;;;;;;;;;;6.80;83.20;;;;;;9185851;19;19911;-62
2023/02/05 02:43:54;;;;;;;;;;;6.80;83.20;;;;;;9183778;19;19922;-63
2023/02/05 02:47:01;;;;;;;;;;;6.80;83.20;;;;;;9181618;19;20026;-62
2023/02/05 02:50:07;;;;;;;;;;;6.80;83.20;;;;;;9185294;19;19941;-62
2023/02/05 02:53:15;;;;;;;;;;;6.80;83.10;;;;;;9183051;19;20287;-65
2023/02/05 02:56:19;;;;;;;;;;;6.80;83.20;;;;;;9183189;19;19953;-63
2023/02/05 02:59:30;;;;;;;;;;;6.80;83.20;;;;;;9181401;19;19919;-63
2023/02/05 03:02:36;;;;;;;;;;;6.80;83.20;;;;;;9182988;19;19917;-62
2023/02/05 03:05:42;;;;;;;;;;;6.80;83.20;;;;;;9182486;19;19919;-60
2023/02/05 03:08:50;;;;;;;;;;;6.80;83.20;;;;;;9183300;19;19945;-62
2023/02/05 03:11:56;;;;;;;;;;;6.90;83.30;;;;;;9176794;19;19922;-65
2023/02/05 03:15:03;;;;;;;;;;;6.90;83.30;;;;;;9181970;19;19926;-63
2023/02/05 03:18:09;;;;;;;;;;;6.80;83.20;;;;;;9177591;19;19917;-64
2023/02/05 03:21:15;;;;;;;;;;;6.90;83.30;;;;;;9181376;19;19926;-63
2023/02/05 03:24:21;;;;;;;;;;;6.90;83.30;;;;;;9184435;19;19934;-65
2023/02/05 03:27:25;;;;;;;;;;;6.90;83.30;;;;;;9180126;19;19930;-62
2023/02/05 03:30:36;;;;;;;;;;;6.90;83.30;;;;;;9183985;19;19926;-65
2023/02/05 03:33:48;;;;;;;;;;;7.00;83.40;;;;;;9180949;19;20470;-63
2023/02/05 03:37:00;;;;;;;;;;;6.90;83.30;;;;;;9182308;19;19922;-62
2023/02/05 03:40:11;;;;;;;;;;;7.00;83.40;;;;;;9181681;19;19927;-62
2023/02/05 03:43:18;;;;;;;;;;;7.00;83.40;;;;;;9181694;19;19930;-63
2023/02/05 03:46:31;;;;;;;;;;;7.00;83.40;;;;;;9180329;19;19965;-62
2023/02/05 03:49:43;;;;;;;;;;;7.00;83.40;;;;;;9181987;19;19919;-62
2023/02/05 03:52:51;;;;;;;;;;;7.00;83.40;;;;;;9182337;19;19923;-64
2023/02/05 03:56:01;;;;;;;;;;;7.10;83.50;;;;;;9181051;19;19930;-62
2023/02/05 03:59:07;;;;;;;;;;;7.10;83.50;;;;;;9180944;19;20606;-61
2023/02/05 04:02:14;;;;;;;;;;;7.10;84.10;;;;;;9181225;19;19919;-62
2023/02/05 04:05:21;;;;;;;;;;;7.10;83.40;;;;;;9180271;19;19922;-64
2023/02/05 04:08:30;;;;;;;;;;;7.10;83.40;;;;;;9182105;19;19933;-63
2023/02/05 04:11:33;;;;;;;;;;;7.20;83.50;;;;;;9169803;19;19951;-62
2023/02/05 04:14:42;;;;;;;;;;;7.20;83.50;;;;;;9172364;19;20747;-63
2023/02/05 04:17:48;;;;;;;;;;;7.20;83.50;;;;;;9177867;19;20382;-61
2023/02/05 04:20:54;;;;;;;;;;;7.20;83.50;;;;;;9182363;19;19929;-64
2023/02/05 04:24:01;;;;;;;;;;;7.20;83.50;;;;;;9182451;19;19922;-65
2023/02/05 04:27:07;;;;;;;;;;;7.20;83.40;;;;;;9180492;19;19957;-63
2023/02/05 04:30:11;;;;;;;;;;;7.30;83.60;;;;;;9178532;19;19942;-62
2023/02/05 04:33:23;;;;;;;;;;;7.30;83.60;;;;;;9182467;19;19926;-63
2023/02/05 04:36:27;;;;;;;;;;;7.30;83.50;;;;;;9182909;19;19927;-63
2023/02/05 04:39:32;;;;;;;;;;;7.30;83.60;;;;;;9181766;19;19926;-62
2023/02/05 04:42:36;;;;;;;;;;;7.30;83.60;;;;;;9182062;19;20332;-63
2023/02/05 04:45:42;;;;;;;;;;;7.30;83.60;;;;;;9181183;19;19922;-64
2023/02/05 04:48:47;;;;;;;;;;;7.30;83.60;;;;;;9182011;19;19915;-63
2023/02/05 04:51:56;;;;;;;;;;;7.30;83.60;;;;;;9182444;19;20579;-62
2023/02/05 04:54:59;;;;;;;;;;;7.40;83.60;;;;;;9179886;19;19924;-62
2023/02/05 04:58:08;;;;;;;;;;;7.40;83.60;;;;;;9179714;19;19926;-63
2023/02/05 05:01:13;;;;;;;;;;;7.40;83.60;;;;;;9181647;19;19923;-62
2023/02/05 05:04:23;;;;;;;;;;;7.40;83.70;;;;;;9180700;19;19915;-64
2023/02/05 05:07:26;;;;;;;;;;;7.40;83.60;;;;;;9177798;19;19922;-62
2023/02/05 05:10:32;;;;;;;;;;;7.40;83.60;;;;;;9175775;19;19926;-63
2023/02/05 05:13:36;;;;;;;;;;;7.40;83.70;;;;;;9180628;19;19922;-62
2023/02/05 05:16:41;;;;;;;;;;;7.40;83.60;;;;;;9180559;19;19919;-63
2023/02/05 05:19:47;;;;;;;;;;;7.40;83.60;;;;;;9177778;19;19919;-63
2023/02/05 05:22:52;;;;;;;;;;;7.50;83.70;;;;;;9173529;19;19922;-62
2023/02/05 05:25:56;;;;;;;;;;;7.40;83.70;;;;;;9173486;19;19929;-62
2023/02/05 05:29:02;;;;;;;;;;;7.50;83.80;;;;;;9178476;19;19974;-64
2023/02/05 05:32:05;;;;;;;;;;;7.50;83.70;;;;;;9179854;19;20387;-64
2023/02/05 05:35:13;;;;;;;;;;;7.50;83.70;;;;;;9179593;19;19918;-64
2023/02/05 05:38:17;;;;;;;;;;;7.50;83.70;;;;;;9179809;19;20429;-63
2023/02/05 05:44:40;;;;;;;;;;;7.50;83.80;;;;;;9179852;19;19918;-63
2023/02/05 05:47:46;;;;;;;;;;;7.50;83.80;;;;;;9176641;19;19918;-64
2023/02/05 05:50:51;;;;;;;;;;;7.50;83.90;;;;;;9179608;19;20329;-62
2023/02/05 05:53:57;;;;;;;;;;;7.60;83.90;;;;;;9179198;19;19929;-63
2023/02/05 05:57:01;;;;;;;;;;;7.60;83.90;;;;;;9179303;19;20297;-61
2023/02/05 06:00:07;;;;;;;;;;;7.60;83.90;;;;;;9179848;19;20646;-62
2023/02/05 06:03:15;;;;;;;;;;;7.60;83.90;;;;;;9178974;19;19921;-62
2023/02/05 06:06:22;;;;;;;;;;;7.60;83.90;;;;;;9177209;19;20240;-64
2023/02/05 06:09:26;;;;;;;;;;;7.60;83.90;;;;;;9178087;19;20324;-65
2023/02/05 06:12:32;;;;;;;;;;;7.70;84.10;;;;;;9174269;19;19915;-64
2023/02/05 06:15:35;;;;;;;;;;;7.70;84.00;;;;;;9178322;19;19922;-62
2023/02/05 06:18:41;;;;;;;;;;;7.70;84.00;;;;;;9178420;19;19934;-62
2023/02/05 06:21:47;;;;;;;;;;;7.70;84.00;;;;;;9178132;19;19911;-62
2023/02/05 06:24:53;;;;;;;;;;;7.70;84.00;;;;;;9178578;19;19915;-62
2023/02/05 06:27:56;;;;;;;;;;;7.80;84.10;;;;;;9174998;19;19923;-62
2023/02/05 06:31:02;;;;;;;;;;;7.80;84.10;;;;;;9178413;19;20272;-62
2023/02/05 06:34:06;;;;;;;;;;;7.80;84.10;;;;;;9178154;19;19922;-63
2023/02/05 06:37:13;;;;;;;;;;;7.80;84.10;;;;;;9177523;19;19923;-64
2023/02/05 06:40:21;;;;;;;;;;;7.80;84.00;;;;;;9176699;19;19919;-62
2023/02/05 06:43:26;;;;;;;;;;;7.90;84.10;;;;;;9177692;19;19922;-63
2023/02/05 06:46:30;;;;;;;;;;;7.90;84.70;;;;;;9176129;19;19919;-63
2023/02/05 06:49:35;;;;;;;;;;;7.90;84.10;;;;;;9177212;19;19926;-62
2023/02/05 06:52:41;;;;;;;;;;;7.90;84.10;;;;;;9177377;19;19919;-62
2023/02/05 06:55:47;;;;;;;;;;;7.90;84.10;;;;;;9176973;19;19919;-63
2023/02/05 06:58:50;;;;;;;;;;;8.00;84.10;;;;;;9176725;19;20376;-63
2023/02/05 07:01:56;;;;;;;;;;;7.90;84.00;;;;;;9175720;19;19915;-64
2023/02/05 07:05:00;;;;;;;;;;;7.90;84.10;;;;;;9176984;19;19935;-64
2023/02/05 07:08:07;;;;;;;;;;;7.90;84.10;;;;;;9173353;19;20243;-62
2023/02/05 07:11:11;;;;;;;;;;;7.90;84.10;;;;;;9170227;19;19922;-64
2023/02/05 07:14:17;;;;;;;;;;;7.90;84.20;;;;;;9176778;19;19914;-62
2023/02/05 07:17:21;;;;;;;;;;;7.80;84.10;;;;;;9174332;19;20265;-63
2023/02/05 07:20:27;;;;;;;;;;;7.80;84.10;;;;;;9175767;19;19922;-63
2023/02/05 07:23:32;;;;;;;;;;;7.80;84.20;;;;;;9183996;19;19930;-66
2023/02/05 07:26:39;;;;;;;;;;;7.80;84.20;;;;;;9182887;19;19934;-63
2023/02/05 07:29:43;;;;;;;;;;;7.70;84.10;;;;;;9182404;19;19918;-63
2023/02/05 07:32:48;;;;;;;;;;;7.70;84.10;;;;;;9176999;19;19919;-64
2023/02/05 07:35:53;;;;;;;;;;;7.60;84.10;;;;;;9179906;19;20773;-63
2023/02/05 07:39:01;;;;;;;;;;;7.60;84.10;;;;;;9183696;19;19919;-63
2023/02/05 07:42:04;;;;;;;;;;;7.60;84.20;;;;;;9184190;19;19955;-62
2023/02/05 07:45:19;;;;;;;;;;;7.60;84.20;;;;;;9181612;19;20225;-64
2023/02/05 07:48:23;;;;;;;;;;;7.60;84.20;;;;;;9180861;19;19922;-65
2023/02/05 07:51:28;;;;;;;;;;;7.50;84.20;;;;;;9183724;19;19930;-60
2023/02/05 07:54:34;;;;;;;;;;;7.50;84.20;;;;;;9182585;19;19915;-63
2023/02/05 07:57:40;;;;;;;;;;;7.40;84.20;;;;;;9183001;19;19915;-62
2023/02/05 08:00:44;;;;;;;;;;;7.50;84.30;;;;;;9183267;19;19930;-63
2023/02/05 08:03:50;;;;;;;;;;;7.40;84.30;;;;;;9182696;19;19915;-62
2023/02/05 08:06:54;;;;;;;;;;;7.40;84.30;;;;;;9178935;19;19915;-63
2023/02/05 08:10:01;;;;;;;;;;;7.40;84.30;;;;;;9176095;19;20339;-62
2023/02/05 08:13:05;;;;;;;;;;;7.40;84.30;;;;;;9182637;19;19923;-63
2023/02/05 08:16:11;;;;;;;;;;;7.40;84.30;;;;;;9179325;19;19914;-62
2023/02/05 08:19:16;;;;;;;;;;;7.40;84.30;;;;;;9182757;19;19918;-61
2023/02/05 08:22:22;;;;;;;;;;;7.40;84.30;;;;;;9181872;19;19919;-62
2023/02/05 08:25:27;;;;;;;;;;;7.40;84.40;;;;;;9182156;19;19923;-62
2023/02/05 08:28:33;;;;;;;;;;;7.40;84.40;;;;;;9177140;19;19926;-63
2023/02/05 08:31:37;;;;;;;;;;;7.30;84.40;;;;;;9177896;19;19918;-61
2023/02/05 08:34:43;;;;;;;;;;;7.30;84.30;;;;;;9178949;19;19910;-62
2023/02/05 08:37:46;;;;;;;;;;;7.30;84.40;;;;;;9179426;19;20276;-64
2023/02/05 08:40:54;;;;;;;;;;;7.30;84.40;;;;;;9179105;19;19910;-62
2023/02/05 08:43:58;;;;;;;;;;;7.30;84.40;;;;;;9178637;19;19926;-63
2023/02/05 08:47:03;;;;;;;;;;;7.30;84.40;;;;;;9177647;19;20631;-63
2023/02/05 08:50:09;;;;;;;;;;;7.30;84.50;;;;;;9180408;19;20303;-62
2023/02/05 08:53:14;;;;;;;;;;;7.40;84.50;;;;;;9181837;19;19938;-63
2023/02/05 08:56:21;;;;;;;;;;;7.40;84.50;;;;;;9181608;19;19918;-64
2023/02/05 08:59:27;;;;;;;;;;;7.40;84.60;;;;;;9171636;19;19925;-63
2023/02/05 09:02:31;;;;;;;;;;;7.40;84.50;;;;;;9172098;19;19956;-64
2023/02/05 09:05:39;;;;;;;;;;;7.40;84.60;;;;;;9175277;19;19919;-63
2023/02/05 09:08:43;;;;;;;;;;;7.40;84.60;;;;;;9171037;19;19922;-67
2023/02/05 09:11:50;;;;;;;;;;;7.40;84.60;;;;;;9167551;19;19926;-63
2023/02/05 09:14:54;;;;;;;;;;;7.40;84.60;;;;;;9174270;19;19922;-63
2023/02/05 09:17:59;;;;;;;;;;;7.40;84.50;;;;;;9174116;19;19919;-64
2023/02/05 09:21:06;;;;;;;;;;;7.40;84.60;;;;;;9173818;19;19926;-64
2023/02/05 09:24:12;;;;;;;;;;;7.40;84.60;;;;;;9174251;19;20562;-63
2023/02/05 09:27:17;;;;;;;;;;;7.50;84.60;;;;;;9172752;19;19929;-63
2023/02/05 09:30:25;;;;;;;;;;;7.50;84.60;;;;;;9170946;19;19994;-62
2023/02/05 09:33:29;;;;;;;;;;;7.50;84.60;;;;;;9171717;19;20344;-62
2023/02/05 09:36:34;;;;;;;;;;;7.50;84.60;;;;;;9173608;19;19929;-63
2023/02/05 09:39:39;;;;;;;;;;;7.50;84.60;;;;;;9172064;19;19922;-62
2023/02/05 09:43:09;;;;;;;;;;;7.40;84.50;;;;;;9172076;19;19926;-63
2023/02/05 09:46:14;;;;;;;;;;;7.50;84.60;;;;;;9171991;19;19930;-62
2023/02/05 09:49:22;;;;;;;;;;;7.50;84.70;;;;;;9174398;19;19923;-63
2023/02/05 09:52:30;;;;;;;;;;;7.50;84.70;;;;;;9173872;19;20387;-63
2023/02/05 09:55:38;;;;;;;;;;;7.50;84.70;;;;;;9173039;19;19919;-65
2023/02/05 09:58:45;;;;;;;;;;;7.50;84.80;;;;;;9172796;19;19922;-63
2023/02/05 10:01:52;;;;;;;;;;;7.50;84.70;;;;;;9173086;19;19918;-64
2023/02/05 10:04:56;;;;;;;;;;;7.50;84.70;;;;;;9172785;19;19923;-63
2023/02/05 10:08:09;;;;;;;;;;;7.50;84.70;;;;;;9169992;19;20555;-62
2023/02/05 10:11:17;;;;;;;;;;;7.50;84.80;;;;;;9165745;19;19923;-64
2023/02/05 10:14:30;;;;;;;;;;;7.50;84.80;;;;;;9172516;19;19922;-65
2023/02/05 10:17:41;;;;;;;;;;;7.50;84.80;;;;;;9172876;19;19949;-65
2023/02/05 10:20:53;;;;;;;;;;;7.60;84.80;;;;;;9172157;19;19953;-65
2023/02/05 10:24:05;;;;;;;;;;;7.60;84.80;;;;;;9172657;19;19997;-63
2023/02/05 10:27:14;;;;;;;;;;;7.60;84.90;;;;;;9171151;19;20275;-64
2023/02/05 10:30:22;;;;;;;;;;;7.60;84.90;;;;;;9171200;19;20605;-63
2023/02/05 10:33:36;;;;;;;;;;;7.60;84.90;;;;;;9171031;19;20336;-63
2023/02/05 10:36:40;;;;;;;;;;;7.70;85.00;;;;;;9172206;19;20332;-64
2023/02/05 10:39:46;;;;;;;;;;;7.70;85.00;;;;;;9171581;19;19922;-62
2023/02/05 10:42:51;;;;;;;;;;;7.70;84.90;;;;;;9170862;19;19941;-63
2023/02/05 10:45:59;;;;;;;;;;;7.70;84.90;;;;;;9170627;19;19911;-65
2023/02/05 10:49:07;;;;;;;;;;;7.80;84.90;;;;;;9167985;19;19918;-63
2023/02/05 10:52:13;;;;;;;;;;;7.80;84.90;;;;;;9169992;19;19926;-62
2023/02/05 10:55:18;;;;;;;;;;;7.90;85.00;;;;;;9173343;19;19941;-63
2023/02/05 10:58:32;;;;;;;;;;;7.90;85.00;;;;;;9178880;19;19930;-66
2023/02/05 11:01:40;;;;;;;;;;;7.90;84.90;;;;;;9178921;19;19922;-66
2023/02/05 11:04:47;;;;;;;;;;;7.90;84.90;;;;;;9177466;19;19929;-66
2023/02/05 11:07:52;;;;;;;;;;;8.00;85.00;;;;;;9170037;19;20650;-63
2023/02/05 11:10:58;;;;;;;;;;;8.00;84.90;;;;;;9164518;19;19915;-63
2023/02/05 11:14:02;;;;;;;;;;;8.00;84.90;;;;;;9172697;19;19923;-64
2023/02/05 11:17:19;;;;;;;;;;;8.10;84.90;;;;;;9173018;19;19937;-64
2023/02/05 11:20:25;;;;;;;;;;;8.10;84.90;;;;;;9169252;19;20344;-66
2023/02/05 11:23:37;;;;;;;;;;;8.10;84.90;;;;;;9171854;19;20363;-64
2023/02/05 11:26:42;;;;;;;;;;;8.20;84.90;;;;;;9172029;19;19923;-64
2023/02/05 11:29:47;;;;;;;;;;;8.20;84.90;;;;;;9175346;19;19923;-63
2023/02/05 11:32:53;;;;;;;;;;;8.20;84.80;;;;;;9170708;19;19930;-65
2023/02/05 11:36:00;;;;;;;;;;;8.20;84.80;;;;;;9170112;19;19918;-67
2023/02/05 11:39:05;;;;;;;;;;;8.30;84.90;;;;;;9171287;19;19930;-64
2023/02/05 11:42:11;;;;;;;;;;;8.30;84.90;;;;;;9170479;19;20268;-62
2023/02/05 11:45:18;;;;;;;;;;;8.30;84.80;;;;;;9168639;19;19939;-64
2023/02/05 11:48:30;;;;;;;;;;;8.30;84.80;;;;;;9169547;19;19919;-65
2023/02/05 11:51:41;;;;;;;;;;;8.40;84.80;;;;;;9167815;19;20485;-64
2023/02/05 11:54:49;;;;;;;;;;;8.40;84.80;;;;;;9174880;19;19923;-65
2023/02/05 11:57:58;;;;;;;;;;;8.50;84.80;;;;;;9175487;19;19922;-62
2023/02/05 12:01:05;;;;;;;;;;;8.50;84.90;;;;;;9170222;19;19915;-65
2023/02/05 12:04:18;;;;;;;;;;;8.60;84.80;;;;;;9174254;19;20018;-64
2023/02/05 12:07:24;;;;;;;;;;;8.60;84.80;;;;;;9172007;19;19922;-62
2023/02/05 12:10:32;;;;;;;;;;;8.60;84.70;;;;;;9168242;19;19941;-64
2023/02/05 12:13:43;;;;;;;;;;;8.70;84.80;;;;;;9170858;19;19918;-62
2023/02/05 12:16:54;;;;;;;;;;;8.70;84.70;;;;;;9174298;19;20006;-66
2023/02/05 12:20:05;;;;;;;;;;;8.70;84.60;;;;;;9173675;19;20265;-63
2023/02/05 12:23:31;;;;;;;;;;;8.70;84.60;;;;;;9170589;19;20620;-63
2023/02/05 12:26:37;;;;;;;;;;;8.70;84.60;;;;;;9169333;19;20229;-63
2023/02/05 12:29:48;;;;;;;;;;;8.70;84.50;;;;;;9171927;19;20313;-62
2023/02/05 12:32:58;;;;;;;;;;;8.70;84.50;;;;;;9166545;19;20513;-65
2023/02/05 12:36:08;;;;;;;;;;;8.70;84.50;;;;;;9167571;19;19937;-63
2023/02/05 12:39:33;;;;;;;;;;;8.70;84.50;;;;;;9168955;19;19929;-65
2023/02/05 12:42:38;;;;;;;;;;;8.70;84.50;;;;;;9175664;19;19934;-66
2023/02/05 12:45:49;;;;;;;;;;;8.70;84.60;;;;;;9173229;19;19919;-65
2023/02/05 12:49:06;;;;;;;;;;;8.70;84.60;;;;;;9170046;19;19923;-65
2023/02/05 12:52:20;;;;;;;;;;;8.70;84.50;;;;;;9171821;19;19915;-64
2023/02/05 12:55:29;;;;;;;;;;;8.70;84.50;;;;;;9166280;19;19933;-67
2023/02/05 12:58:37;;;;;;;;;;;8.80;84.60;;;;;;9169083;19;19923;-64
2023/02/05 13:01:43;;;;;;;;;;;8.80;84.60;;;;;;9167781;19;19923;-64
2023/02/05 13:04:52;;;;;;;;;;;8.80;84.70;;;;;;9165198;19;19942;-65
2023/02/05 13:08:00;;;;;;;;;;;8.80;84.50;;;;;;9168642;19;19928;-64
2023/02/05 13:11:08;;;;;;;;;;;8.80;84.50;;;;;;9163715;19;19922;-64
2023/02/05 13:14:15;;;;;;;;;;;8.80;84.50;;;;;;9168321;19;20031;-63
2023/02/05 13:17:22;;;;;;;;;;;8.90;84.50;;;;;;9172506;19;20268;-65
2023/02/05 13:28:38;;;;;;;;;;;8.90;84.50;;;;;;9173470;19;19941;-65
2023/02/05 13:30:44;;;;;;;;;;;8.90;84.40;;;;;;9168128;19;19919;-64
2023/02/05 13:33:48;;;;;;;;;;;9.00;84.40;;;;;;9165995;19;20393;-63
2023/02/05 13:37:12;;;;;;;;;;;9.00;84.40;;;;;;9168449;19;19918;-63
2023/02/05 13:40:30;;;;;;;;;;;9.00;84.40;;;;;;9174125;19;19932;-63
2023/02/05 13:43:44;;;;;;;;;;;9.00;84.30;;;;;;9167923;19;20282;-63
2023/02/05 13:46:59;;;;;;;;;;;9.00;84.30;;;;;;9167180;19;19925;-67
2023/02/05 13:50:18;;;;;;;;;;;9.00;84.30;;;;;;9172492;19;19922;-65
2023/02/05 13:53:26;;;;;;;;;;;9.00;84.20;;;;;;9165883;19;19923;-65
2023/02/05 13:56:42;;;;;;;;;;;9.00;84.10;;;;;;9169732;19;19918;-65
2023/02/05 13:59:50;;;;;;;;;;;9.10;84.20;;;;;;9164176;19;20304;-64
2023/02/05 14:02:57;;;;;;;;;;;9.00;84.10;;;;;;9167984;19;20512;-64
2023/02/05 14:06:12;;;;;;;;;;;9.00;84.10;;;;;;9167998;19;19923;-64
2023/02/05 14:09:22;;;;;;;;;;;9.10;84.20;;;;;;9162338;19;19945;-64
2023/02/05 14:12:28;;;;;;;;;;;9.10;84.20;;;;;;9159084;19;19952;-64
2023/02/05 14:15:38;;;;;;;;;;;9.10;84.20;;;;;;9164545;19;19919;-65
2023/02/05 14:18:50;;;;;;;;;;;9.10;84.20;;;;;;9170634;19;19923;-65
2023/02/05 14:22:00;;;;;;;;;;;9.10;84.20;;;;;;9167795;19;19919;-64
2023/02/05 14:25:05;;;;;;;;;;;9.10;84.20;;;;;;9171232;19;19925;-63
2023/02/05 14:28:25;;;;;;;;;;;9.10;84.20;;;;;;9165648;19;20574;-64
2023/02/05 14:31:44;;;;;;;;;;;9.10;84.10;;;;;;9183366;19;19919;-64
2023/02/05 14:34:58;;;;;;;;;;;9.10;84.10;;;;;;9184335;19;20330;-63
2023/02/05 14:38:03;;;;;;;;;;;9.10;84.10;;;;;;9188828;19;19957;-67
2023/02/05 14:41:12;;;;;;;;;;;9.10;84.00;;;;;;9185217;19;19919;-67
2023/02/05 14:44:18;;;;;;;;;;;9.10;84.00;;;;;;9183595;19;19926;-64
2023/02/05 14:47:26;;;;;;;;;;;9.10;84.00;;;;;;9187303;19;19915;-64
2023/02/05 14:50:32;;;;;;;;;;;9.10;84.00;;;;;;9186698;19;19939;-64
2023/02/05 14:53:38;;;;;;;;;;;9.10;84.00;;;;;;9193921;19;20454;-62
2023/02/05 14:56:44;;;;;;;;;;;9.10;83.90;;;;;;9194854;19;19935;-62
2023/02/05 14:59:52;;;;;;;;;;;9.10;84.10;;;;;;9194556;19;19923;-63
2023/02/05 15:03:14;;;;;;;;;;;9.10;84.00;;;;;;9189920;19;19919;-64
2023/02/05 15:06:26;;;;;;;;;;;9.10;83.90;;;;;;9179274;19;19926;-64
2023/02/05 15:09:37;;;;;;;;;;;9.10;83.90;;;;;;9180559;19;20366;-64
2023/02/05 15:13:03;;;;;;;;;;;9.10;83.90;;;;;;9183134;19;19934;-64
2023/02/05 15:16:19;;;;;;;;;;;9.10;83.90;;;;;;9186882;19;19945;-64
2023/02/05 15:19:25;;;;;;;;;;;9.00;83.80;;;;;;9187335;19;19928;-62
2023/02/05 15:22:34;;;;;;;;;;;9.00;83.70;;;;;;9188205;19;19955;-63
2023/02/05 15:25:41;;;;;;;;;;;9.00;83.70;;;;;;9184611;19;19922;-65
2023/02/05 15:28:49;;;;;;;;;;;9.00;83.70;;;;;;9182289;19;19929;-62
2023/02/05 15:31:56;;;;;;;;;;;8.90;83.60;;;;;;9186902;19;19923;-63
2023/02/05 15:35:04;;;;;;;;;;;8.90;83.70;;;;;;9184011;19;19943;-64
2023/02/05 15:38:20;;;;;;;;;;;8.90;83.60;;;;;;9183555;19;20252;-66
2023/02/05 15:41:25;;;;;;;;;;;8.90;83.60;;;;;;9178897;19;19919;-62
2023/02/05 15:44:31;;;;;;;;;;;8.90;83.60;;;;;;9176276;19;19918;-65
2023/02/05 15:47:35;;;;;;;;;;;8.80;83.50;;;;;;9175969;19;19932;-63
2023/02/05 15:50:44;;;;;;;;;;;8.80;83.60;;;;;;9174135;19;19926;-64
2023/02/05 15:53:51;;;;;;;;;;;8.80;83.60;;;;;;9174399;19;19923;-63
2023/02/05 15:56:57;;;;;;;;;;;8.70;83.60;;;;;;9174183;19;19919;-63
2023/02/05 16:00:01;;;;;;;;;;;8.70;83.50;;;;;;9175723;19;19922;-65
2023/02/05 16:03:24;;;;;;;;;;;8.70;83.50;;;;;;9176723;19;19919;-63
2023/02/05 16:06:30;;;;;;;;;;;8.60;83.40;;;;;;9174215;19;19927;-64
2023/02/05 16:09:38;;;;;;;;;;;8.60;83.50;;;;;;9172337;19;19958;-64
2023/02/05 16:12:57;;;;;;;;;;;8.60;83.40;;;;;;9171511;19;19933;-62
2023/02/05 16:16:05;;;;;;;;;;;8.60;83.40;;;;;;9175710;19;19925;-63
2023/02/05 16:19:13;;;;;;;;;;;8.50;83.40;;;;;;9170352;19;19997;-64
2023/02/05 16:22:23;;;;;;;;;;;8.50;83.40;;;;;;9169117;19;19926;-62
2023/02/05 16:25:42;;;;;;;;;;;8.50;83.40;;;;;;9174784;19;20756;-62
2023/02/05 16:28:49;;;;;;;;;;;8.50;83.40;;;;;;9166717;19;19910;-64
2023/02/05 16:31:57;;;;;;;;;;;8.50;83.40;;;;;;9171843;19;19934;-63
2023/02/05 16:35:04;;;;;;;;;;;8.40;83.40;;;;;;9169053;19;19923;-63
2023/02/05 16:38:15;;;;;;;;;;;8.40;83.30;;;;;;9169615;19;19933;-63
2023/02/05 16:41:24;;;;;;;;;;;8.40;83.30;;;;;;9169737;19;20050;-63
2023/02/05 16:44:30;;;;;;;;;;;8.30;83.30;;;;;;9170677;19;19931;-66
2023/02/05 16:47:36;;;;;;;;;;;8.30;83.30;;;;;;9169285;19;19930;-63
2023/02/05 16:50:43;;;;;;;;;;;8.30;83.30;;;;;;9172003;19;19931;-65
2023/02/05 16:53:50;;;;;;;;;;;8.30;83.30;;;;;;9167386;19;19922;-63
2023/02/05 16:56:59;;;;;;;;;;;8.20;83.30;;;;;;9169233;19;19919;-64
2023/02/05 17:00:07;;;;;;;;;;;8.20;83.30;;;;;;9167027;19;19919;-61
2023/02/05 17:03:18;;;;;;;;;;;8.10;83.20;;;;;;9168616;19;19926;-65
2023/02/05 17:06:24;;;;;;;;;;;8.10;83.30;;;;;;9168917;19;19915;-63
2023/02/05 17:09:32;;;;;;;;;;;8.10;83.30;;;;;;9166453;19;19929;-64
2023/02/05 17:12:41;;;;;;;;;;;8.10;83.20;;;;;;9171425;19;20337;-63
2023/02/05 17:15:44;;;;;;;;;;;8.00;83.10;;;;;;9174353;19;19919;-62
2023/02/05 17:18:54;;;;;;;;;;;8.00;83.20;;;;;;9172503;19;19922;-66
2023/02/05 17:22:12;;;;;;;;;;;8.00;83.20;;;;;;9174503;19;19927;-65
2023/02/05 17:25:21;;;;;;;;;;;7.90;83.20;;;;;;9174487;19;19918;-63
2023/02/05 17:28:28;;;;;;;;;;;7.90;83.20;;;;;;9172780;19;19923;-62
2023/02/05 17:31:35;;;;;;;;;;;7.80;83.10;;;;;;9174075;19;19922;-62
2023/02/05 17:34:38;;;;;;;;;;;7.80;83.20;;;;;;9174288;19;20282;-62
2023/02/05 17:37:44;;;;;;;;;;;7.70;83.10;;;;;;9172000;19;19933;-63
2023/02/05 17:40:48;;;;;;;;;;;7.70;83.10;;;;;;9173775;19;20165;-63
2023/02/05 17:43:55;;;;;;;;;;;7.60;83.10;;;;;;9173906;19;19930;-64
2023/02/05 17:46:59;;;;;;;;;;;7.60;83.10;;;;;;9171963;19;19990;-63
2023/02/05 17:50:05;;;;;;;;;;;7.60;83.10;;;;;;9169754;19;20340;-65
2023/02/05 17:53:12;;;;;;;;;;;7.60;83.10;;;;;;9171816;19;19925;-64
2023/02/05 17:56:20;;;;;;;;;;;7.50;83.10;;;;;;9173482;19;19945;-63
2023/02/05 17:59:26;;;;;;;;;;;7.50;83.10;;;;;;9172664;19;19931;-62
2023/02/05 18:02:32;;;;;;;;;;;7.50;83.10;;;;;;9173352;19;19919;-64
2023/02/05 18:05:36;;;;;;;;;;;7.40;83.00;;;;;;9170985;19;19919;-62
2023/02/05 18:08:42;;;;;;;;;;;7.40;83.10;;;;;;9168300;19;19922;-64
2023/02/05 18:11:45;;;;;;;;;;;7.30;83.20;;;;;;9161800;19;19923;-63
2023/02/05 18:14:53;;;;;;;;;;;7.30;83.10;;;;;;9170325;19;19926;-63
2023/02/05 18:17:56;;;;;;;;;;;7.30;83.10;;;;;;9168385;19;19940;-63
2023/02/05 18:21:02;;;;;;;;;;;7.20;83.00;;;;;;9170190;19;19921;-64
2023/02/05 18:24:06;;;;;;;;;;;7.20;83.10;;;;;;9169326;19;19940;-64
2023/02/05 18:27:12;;;;;;;;;;;7.10;83.00;;;;;;9168546;19;19922;-62
2023/02/05 18:30:17;;;;;;;;;;;7.10;83.10;;;;;;9165165;19;20336;-62
2023/02/05 18:33:23;;;;;;;;;;;7.10;83.10;;;;;;9168407;19;19915;-63
2023/02/05 18:36:27;;;;;;;;;;;7.10;83.10;;;;;;9168087;19;19926;-63